Time;durP1;ratioP1;P1;durP2;ratioP2;P2;SDS_P1;SDS_P2;PMS_P1;PMS_P2;Temp;Humidity;BMP_temperature;BMP_pressure;BME280_temperature;BME280_humidity;BME280_pressure;Samples;Min_cycle;Max_cycle;Signal;HPM_P1;HPM_P2
2022/09/22 00:01:34;;;;;;;0.88;0.10;;;17.50;96.70;;;;;;5090781;28;20057;-83
2022/09/22 00:04:05;;;;;;;0.40;0.10;;;17.50;96.70;;;;;;5108163;28;20067;-85
2022/09/22 00:06:36;;;;;;;0.60;0.20;;;17.50;96.70;;;;;;5105390;28;20530;-85
2022/09/22 00:09:08;;;;;;;2.33;0.20;;;17.40;96.70;;;;;;5108221;28;20039;-85
2022/09/22 00:11:37;;;;;;;0.55;0.10;;;17.50;96.70;;;;;;5100488;28;20054;-86
2022/09/22 00:14:07;;;;;;;1.17;0.20;;;17.50;96.70;;;;;;5107289;28;20501;-84
2022/09/22 00:16:38;;;;;;;1.08;0.28;;;17.50;96.70;;;;;;5104910;28;20043;-85
2022/09/22 00:19:06;;;;;;;0.25;0.20;;;17.60;96.70;;;;;;5090062;28;20053;-85
2022/09/22 00:21:35;;;;;;;0.77;0.17;;;17.60;96.70;;;;;;5089385;28;20051;-85
2022/09/22 00:24:05;;;;;;;1.13;0.20;;;17.60;96.70;;;;;;5107588;28;20656;-85
2022/09/22 00:26:36;;;;;;;0.82;0.13;;;17.50;96.70;;;;;;5106024;28;20123;-85
2022/09/22 00:29:08;;;;;;;0.75;0.20;;;17.40;96.70;;;;;;5090315;28;20051;-84
2022/09/22 00:31:37;;;;;;;1.73;0.20;;;17.40;96.70;;;;;;5107212;28;20050;-84
2022/09/22 00:34:06;;;;;;;3.28;0.20;;;17.30;96.70;;;;;;5106932;28;20450;-84
2022/09/22 00:36:34;;;;;;;0.63;0.30;;;17.20;96.70;;;;;;5107583;28;20055;-86
2022/09/22 00:39:02;;;;;;;0.68;0.15;;;17.30;96.70;;;;;;5106811;28;20936;-85
2022/09/22 00:41:35;;;;;;;0.20;0.10;;;17.20;96.70;;;;;;5090924;28;20386;-85
2022/09/22 00:44:39;;;;;;;0.20;0.20;;;17.30;96.70;;;;;;5106636;28;20527;-85
2022/09/22 00:47:33;;;;;;;0.55;0.15;;;17.30;96.70;;;;;;5048567;28;20064;-84
2022/09/22 00:50:10;;;;;;;0.55;0.20;;;17.50;96.70;;;;;;5045920;28;20053;-85
2022/09/22 00:52:43;;;;;;;0.38;0.20;;;17.50;96.70;;;;;;5042910;28;20120;-85
2022/09/22 00:55:14;;;;;;;0.55;0.00;;;17.30;96.70;;;;;;5065993;28;20072;-84
2022/09/22 00:57:45;;;;;;;1.48;0.20;;;17.30;96.70;;;;;;5068808;28;20052;-84
2022/09/22 01:00:15;;;;;;;1.40;0.10;;;17.40;96.70;;;;;;5044369;28;20048;-85
2022/09/22 01:02:46;;;;;;;1.00;0.25;;;17.40;96.70;;;;;;5044033;28;20044;-84
2022/09/22 01:05:15;;;;;;;0.28;0.17;;;17.40;96.70;;;;;;5052151;28;20094;-85
2022/09/22 01:07:45;;;;;;;0.35;0.10;;;17.30;96.70;;;;;;5068542;28;20044;-84
2022/09/22 01:10:13;;;;;;;1.65;0.20;;;17.20;96.70;;;;;;5052335;28;20561;-86
2022/09/22 01:12:53;;;;;;;0.65;0.20;;;17.20;96.70;;;;;;5049541;28;20059;-86
2022/09/22 01:15:30;;;;;;;0.30;0.20;;;17.10;96.70;;;;;;5050209;28;20098;-85
2022/09/22 01:18:14;;;;;;;0.95;0.25;;;17.00;96.70;;;;;;5088640;28;20064;-85
2022/09/22 01:21:20;;;;;;;1.70;0.25;;;16.80;96.70;;;;;;5109524;28;20125;-85
2022/09/22 01:24:28;;;;;;;0.93;0.10;;;16.80;96.70;;;;;;5110858;28;20066;-86
2022/09/22 01:27:31;;;;;;;1.00;0.20;;;16.70;96.70;;;;;;5090644;28;20570;-85
2022/09/22 01:30:34;;;;;;;2.10;0.17;;;16.60;96.70;;;;;;5055370;28;20933;-85
2022/09/22 01:33:19;;;;;;;0.50;0.20;;;16.50;96.70;;;;;;5105467;28;20036;-85
2022/09/22 01:36:01;;;;;;;0.75;0.20;;;16.50;96.70;;;;;;5105266;28;20507;-85
2022/09/22 01:38:34;;;;;;;0.30;0.20;;;16.50;96.70;;;;;;5110139;28;20079;-84
2022/09/22 01:41:07;;;;;;;1.27;0.20;;;16.50;96.70;;;;;;5103463;28;20096;-84
2022/09/22 01:43:43;;;;;;;0.98;0.22;;;16.40;96.70;;;;;;5110374;28;20055;-84
2022/09/22 01:46:20;;;;;;;0.30;0.15;;;16.50;96.70;;;;;;5095353;28;20052;-85
2022/09/22 01:48:50;;;;;;;0.25;0.10;;;16.50;96.70;;;;;;5101683;28;20043;-85
2022/09/22 01:51:22;;;;;;;0.70;0.20;;;16.50;96.70;;;;;;5110792;28;20671;-85
2022/09/22 01:53:53;;;;;;;0.65;0.40;;;16.40;96.70;;;;;;5082531;28;20051;-82
2022/09/22 01:56:23;;;;;;;0.68;0.25;;;16.30;96.70;;;;;;5110157;28;20412;-85
2022/09/22 01:58:55;;;;;;;2.17;0.30;;;16.20;96.70;;;;;;5092620;28;20142;-85
2022/09/22 02:01:28;;;;;;;1.20;0.30;;;16.00;96.70;;;;;;5095836;28;20046;-85
2022/09/22 02:04:03;;;;;;;1.15;0.20;;;16.00;96.70;;;;;;5110803;28;20067;-85
2022/09/22 02:06:34;;;;;;;1.13;0.30;;;16.10;96.70;;;;;;5097327;28;20040;-86
2022/09/22 02:09:08;;;;;;;1.05;0.17;;;16.00;96.70;;;;;;5110732;28;20045;-85
2022/09/22 02:11:36;;;;;;;0.15;0.10;;;16.00;96.70;;;;;;5104271;28;20040;-85
2022/09/22 02:14:05;;;;;;;2.15;0.40;;;15.90;96.70;;;;;;5103893;28;20089;-84
2022/09/22 02:16:35;;;;;;;2.00;0.30;;;15.90;96.70;;;;;;5109794;28;20799;-85
2022/09/22 02:19:10;;;;;;;0.50;0.20;;;15.90;96.70;;;;;;5108414;28;20091;-85
2022/09/22 02:21:43;;;;;;;0.40;0.20;;;15.90;96.70;;;;;;5108935;28;20058;-85
2022/09/22 02:24:26;;;;;;;0.90;0.22;;;15.80;96.70;;;;;;5104359;28;20031;-85
2022/09/22 02:26:54;;;;;;;2.30;0.40;;;15.60;96.70;;;;;;5109660;28;20047;-85
2022/09/22 02:29:25;;;;;;;2.13;0.43;;;15.60;96.70;;;;;;5109036;28;20449;-85
2022/09/22 02:31:57;;;;;;;0.32;0.20;;;15.70;96.70;;;;;;5101256;28;20134;-84
2022/09/22 02:34:25;;;;;;;0.40;0.10;;;15.60;96.70;;;;;;5104822;28;20142;-85
2022/09/22 02:37:00;;;;;;;0.30;0.20;;;15.60;96.70;;;;;;5088544;28;20066;-84
2022/09/22 02:39:34;;;;;;;1.45;0.30;;;15.40;96.70;;;;;;5108949;28;20051;-85
2022/09/22 02:42:24;;;;;;;2.03;0.20;;;15.50;96.70;;;;;;5107772;28;20047;-85
2022/09/22 02:44:59;;;;;;;0.40;0.30;;;15.60;96.70;;;;;;5080466;28;20552;-85
2022/09/22 02:47:34;;;;;;;1.02;0.28;;;15.60;96.70;;;;;;5108170;28;20039;-83
2022/09/22 02:50:07;;;;;;;0.47;0.25;;;15.50;96.70;;;;;;5092168;28;20096;-83
2022/09/22 02:52:36;;;;;;;0.25;0.20;;;15.50;96.70;;;;;;5107657;28;20047;-83
2022/09/22 02:55:05;;;;;;;0.25;0.10;;;15.50;96.70;;;;;;5108909;28;20083;-84
2022/09/22 02:57:33;;;;;;;1.15;0.22;;;15.50;96.70;;;;;;5108362;28;20054;-84
2022/09/22 03:00:01;;;;;;;4.03;0.40;;;15.40;96.70;;;;;;5100653;28;20070;-84
2022/09/22 03:02:30;;;;;;;1.20;0.20;;;15.30;96.70;;;;;;5102330;28;20555;-84
2022/09/22 03:04:57;;;;;;;1.95;0.30;;;15.30;96.70;;;;;;5102922;28;20134;-84
2022/09/22 03:07:25;;;;;;;0.25;0.10;;;15.10;96.70;;;;;;5091371;28;20047;-83
2022/09/22 03:09:53;;;;;;;0.45;0.20;;;15.10;96.70;;;;;;5109849;28;20063;-84
2022/09/22 03:12:20;;;;;;;0.60;0.20;;;15.00;96.70;;;;;;5086070;28;20055;-82
2022/09/22 03:14:51;;;;;;;1.10;0.20;;;14.90;96.70;;;;;;5109678;28;20039;-84
2022/09/22 03:17:18;;;;;;;0.40;0.20;;;14.90;96.70;;;;;;5106708;28;20040;-84
2022/09/22 03:19:48;;;;;;;1.13;0.20;;;14.80;96.70;;;;;;5108581;28;20051;-83
2022/09/22 03:22:15;;;;;;;0.68;0.20;;;14.70;96.70;;;;;;5108203;28;20043;-85
2022/09/22 03:24:43;;;;;;;0.80;0.30;;;14.80;96.70;;;;;;5108376;28;20048;-84
2022/09/22 03:27:10;;;;;;;0.68;0.22;;;14.90;96.70;;;;;;5091084;28;20462;-84
2022/09/22 03:29:38;;;;;;;0.57;0.20;;;14.90;96.70;;;;;;5108433;28;20390;-83
2022/09/22 03:32:06;;;;;;;1.15;0.25;;;14.90;96.70;;;;;;5108280;28;20054;-84
2022/09/22 03:34:33;;;;;;;2.20;0.20;;;14.80;96.70;;;;;;5108082;28;20111;-84
2022/09/22 03:37:02;;;;;;;1.42;0.30;;;14.70;96.70;;;;;;5107868;28;20511;-84
2022/09/22 03:39:30;;;;;;;0.50;0.20;;;14.80;96.70;;;;;;5109501;28;20074;-83
2022/09/22 03:41:58;;;;;;;0.70;0.30;;;14.90;96.70;;;;;;5107553;28;20132;-84
2022/09/22 03:44:25;;;;;;;0.85;0.32;;;14.80;96.70;;;;;;5106573;28;20168;-84
2022/09/22 03:46:53;;;;;;;1.20;0.30;;;14.80;96.70;;;;;;5108170;28;20107;-84
2022/09/22 03:49:21;;;;;;;2.00;0.35;;;14.80;96.70;;;;;;5090765;28;20058;-84
2022/09/22 03:51:48;;;;;;;1.08;0.20;;;14.90;96.70;;;;;;5107032;28;20043;-84
2022/09/22 03:54:17;;;;;;;1.27;0.40;;;14.80;96.70;;;;;;5108373;28;20032;-84
2022/09/22 03:56:45;;;;;;;0.43;0.20;;;14.60;96.70;;;;;;5106608;28;20130;-84
2022/09/22 03:59:13;;;;;;;1.00;0.30;;;14.60;96.70;;;;;;5106640;28;20051;-84
2022/09/22 04:01:42;;;;;;;2.65;0.38;;;14.60;96.70;;;;;;5091129;28;20040;-83
2022/09/22 04:04:11;;;;;;;0.35;0.25;;;14.60;96.70;;;;;;5081585;28;20043;-84
2022/09/22 04:06:38;;;;;;;1.08;0.40;;;14.50;96.70;;;;;;5105909;28;20031;-83
2022/09/22 04:09:06;;;;;;;0.80;0.30;;;14.50;96.70;;;;;;5104149;28;20069;-84
2022/09/22 04:11:37;;;;;;;1.52;0.30;;;14.60;96.70;;;;;;5107622;28;20050;-84
2022/09/22 04:14:05;;;;;;;1.88;0.40;;;14.60;96.70;;;;;;5106305;28;20071;-85
2022/09/22 04:16:44;;;;;;;1.15;0.30;;;14.50;96.70;;;;;;5090762;28;20138;-84
2022/09/22 04:19:12;;;;;;;1.20;0.35;;;14.70;96.70;;;;;;5107796;28;20052;-84
2022/09/22 04:21:40;;;;;;;1.20;0.50;;;14.70;96.70;;;;;;5103668;28;20036;-83
2022/09/22 04:24:10;;;;;;;1.95;0.43;;;14.70;96.70;;;;;;5105222;28;20082;-84
2022/09/22 04:26:39;;;;;;;1.67;0.60;;;14.80;96.70;;;;;;5107573;28;20139;-85
2022/09/22 04:29:22;;;;;;;1.65;0.63;;;14.70;96.70;;;;;;5109545;28;20035;-85
2022/09/22 04:31:50;;;;;;;1.35;0.50;;;14.60;96.70;;;;;;5112701;28;20078;-85
2022/09/22 04:34:18;;;;;;;2.45;0.52;;;14.50;96.70;;;;;;5104982;28;20047;-85
2022/09/22 04:36:45;;;;;;;2.40;0.80;;;14.40;96.70;;;;;;5102429;28;20130;-85
2022/09/22 04:39:13;;;;;;;1.02;0.63;;;14.40;96.70;;;;;;5105885;28;20096;-86
2022/09/22 04:41:42;;;;;;;1.10;0.50;;;14.40;96.70;;;;;;5108395;28;20054;-86
2022/09/22 04:44:10;;;;;;;2.42;0.52;;;14.30;96.70;;;;;;5111586;28;20067;-84
2022/09/22 04:46:38;;;;;;;1.17;0.50;;;14.40;96.70;;;;;;5110529;28;20043;-86
2022/09/22 04:49:06;;;;;;;2.60;0.65;;;14.40;96.70;;;;;;5104043;28;20044;-84
2022/09/22 04:51:33;;;;;;;1.25;0.80;;;14.30;96.70;;;;;;5085323;28;20782;-84
2022/09/22 04:54:02;;;;;;;0.77;0.50;;;14.30;96.70;;;;;;5104722;28;20052;-85
2022/09/22 04:56:30;;;;;;;1.98;0.60;;;14.30;96.70;;;;;;5107260;28;20045;-85
2022/09/22 04:58:59;;;;;;;1.83;0.40;;;14.20;96.70;;;;;;5110827;28;20075;-84
2022/09/22 05:01:27;;;;;;;3.63;0.50;;;14.20;96.70;;;;;;5109470;28;20412;-84
2022/09/22 05:03:55;;;;;;;0.70;0.52;;;14.20;96.70;;;;;;5091268;28;20524;-85
2022/09/22 05:06:22;;;;;;;1.50;0.60;;;14.20;96.70;;;;;;5109512;28;20047;-84
2022/09/22 05:08:50;;;;;;;1.83;0.73;;;14.20;96.70;;;;;;5105604;28;20090;-85
2022/09/22 05:11:23;;;;;;;2.45;0.43;;;14.10;96.70;;;;;;5110058;28;20044;-85
2022/09/22 05:13:50;;;;;;;1.77;0.50;;;13.90;96.70;;;;;;5103060;28;20520;-85
2022/09/22 05:16:20;;;;;;;1.58;0.65;;;14.00;96.70;;;;;;5109758;28;20054;-84
2022/09/22 05:18:49;;;;;;;2.30;0.60;;;14.00;96.70;;;;;;5102975;28;20051;-84
2022/09/22 05:21:17;;;;;;;2.13;0.60;;;14.00;96.70;;;;;;5111108;28;20092;-84
2022/09/22 05:23:45;;;;;;;3.20;0.88;;;14.00;96.70;;;;;;5110426;28;20361;-85
2022/09/22 05:26:13;;;;;;;2.70;1.00;;;13.90;96.70;;;;;;5110248;28;20035;-84
2022/09/22 05:28:51;;;;;;;3.00;0.70;;;14.00;96.70;;;;;;5109911;28;20122;-83
2022/09/22 05:31:20;;;;;;;1.30;0.70;;;14.10;96.70;;;;;;5093157;28;20071;-85
2022/09/22 05:33:48;;;;;;;1.95;0.50;;;14.20;96.70;;;;;;5104771;28;20116;-85
2022/09/22 05:36:16;;;;;;;1.52;0.50;;;14.30;96.70;;;;;;5108107;28;20047;-85
2022/09/22 05:38:44;;;;;;;2.65;0.47;;;14.30;96.70;;;;;;5096172;28;20093;-84
2022/09/22 05:41:12;;;;;;;1.88;0.65;;;14.20;96.70;;;;;;5109167;28;20043;-85
2022/09/22 05:43:40;;;;;;;1.92;0.65;;;14.20;96.70;;;;;;5109846;28;20075;-85
2022/09/22 05:46:08;;;;;;;0.90;0.40;;;14.30;96.70;;;;;;5093665;28;20072;-85
2022/09/22 05:48:37;;;;;;;1.55;0.60;;;14.30;96.70;;;;;;5111192;28;20047;-83
2022/09/22 05:51:05;;;;;;;3.20;0.80;;;14.30;96.70;;;;;;5105858;28;20655;-82
2022/09/22 05:53:33;;;;;;;6.60;1.13;;;14.20;96.70;;;;;;5109342;28;20047;-85
2022/09/22 05:56:01;;;;;;;5.13;1.45;;;14.30;96.70;;;;;;5109496;28;20035;-82
2022/09/22 05:58:29;;;;;;;13.57;5.78;;;14.30;96.70;;;;;;5100868;28;20050;-86
2022/09/22 06:00:57;;;;;;;39.20;19.23;;;14.40;96.70;;;;;;5107485;28;19929;-85
2022/09/22 06:03:25;;;;;;;37.95;20.90;;;14.40;96.70;;;;;;5110700;28;20035;-85
2022/09/22 06:05:54;;;;;;;33.75;17.50;;;14.30;96.70;;;;;;5109575;28;20042;-84
2022/09/22 06:08:22;;;;;;;31.17;15.98;;;14.40;96.70;;;;;;5109148;28;20054;-88
2022/09/22 06:10:51;;;;;;;29.02;14.57;;;14.30;96.70;;;;;;5085597;28;20047;-85
2022/09/22 06:13:19;;;;;;;33.83;17.23;;;14.30;96.70;;;;;;5108392;28;20052;-86
2022/09/22 06:15:47;;;;;;;29.30;15.35;;;14.00;96.70;;;;;;5110103;28;20301;-86
2022/09/22 06:18:19;;;;;;;19.60;9.50;;;13.70;96.70;;;;;;5109606;28;20048;-86
2022/09/22 06:20:54;;;;;;;12.38;7.45;;;13.50;96.70;;;;;;5106861;28;20047;-84
2022/09/22 06:23:25;;;;;;;13.27;6.80;;;13.40;96.70;;;;;;5082139;28;20106;-84
2022/09/22 06:25:56;;;;;;;13.82;5.68;;;13.40;96.70;;;;;;5109134;28;20130;-84
2022/09/22 06:28:24;;;;;;;11.05;5.28;;;13.50;96.70;;;;;;5110276;27;20551;-85
2022/09/22 06:30:56;;;;;;;19.67;6.63;;;13.50;96.70;;;;;;5110723;28;20044;-86
2022/09/22 06:33:24;;;;;;;7.68;4.03;;;13.50;96.70;;;;;;5092160;28;20050;-85
2022/09/22 06:35:53;;;;;;;6.15;2.88;;;13.50;96.70;;;;;;5091564;28;20489;-85
2022/09/22 06:38:21;;;;;;;5.95;2.83;;;13.50;96.70;;;;;;5091694;28;20047;-84
2022/09/22 06:40:50;;;;;;;8.38;3.63;;;13.50;96.70;;;;;;5109150;28;20047;-85
2022/09/22 06:43:22;;;;;;;8.13;3.90;;;13.60;96.70;;;;;;5108208;28;20142;-85
2022/09/22 06:45:59;;;;;;;11.10;5.22;;;13.80;96.70;;;;;;5110256;28;20031;-84
2022/09/22 06:48:27;;;;;;;10.45;4.63;;;13.80;96.70;;;;;;5099545;28;20123;-84
2022/09/22 06:50:54;;;;;;;12.35;6.07;;;13.80;96.70;;;;;;5108535;28;20047;-84
2022/09/22 06:53:23;;;;;;;15.80;7.68;;;13.90;96.70;;;;;;5087054;28;20106;-84
2022/09/22 06:55:57;;;;;;;17.75;9.15;;;14.00;96.70;;;;;;5105726;28;20055;-84
2022/09/22 06:58:26;;;;;;;21.38;9.32;;;14.10;96.70;;;;;;5107942;28;20530;-84
2022/09/22 07:00:56;;;;;;;18.73;9.13;;;14.20;96.70;;;;;;5108208;28;20605;-85
2022/09/22 07:03:25;;;;;;;19.45;8.43;;;14.30;96.70;;;;;;5108093;28;20043;-85
2022/09/22 07:05:54;;;;;;;18.73;8.45;;;14.50;96.70;;;;;;5084065;28;20048;-84
2022/09/22 07:08:23;;;;;;;16.75;7.90;;;14.60;96.70;;;;;;5103376;28;20161;-84
2022/09/22 07:10:52;;;;;;;18.85;8.05;;;14.60;96.70;;;;;;5093677;28;20134;-84
2022/09/22 07:13:21;;;;;;;13.20;7.07;;;14.70;96.70;;;;;;5103319;28;20056;-84
2022/09/22 07:15:50;;;;;;;9.38;4.93;;;14.80;96.70;;;;;;5106086;28;20066;-84
2022/09/22 07:18:18;;;;;;;7.30;3.90;;;14.90;96.70;;;;;;5106201;28;20070;-85
2022/09/22 07:20:46;;;;;;;8.55;3.42;;;15.00;96.70;;;;;;5108168;28;20047;-84
2022/09/22 07:23:16;;;;;;;9.18;3.60;;;15.10;96.70;;;;;;5107842;28;20039;-84
2022/09/22 07:25:55;;;;;;;5.80;2.65;;;15.20;96.70;;;;;;5109701;28;20062;-83
2022/09/22 07:28:27;;;;;;;5.90;2.83;;;15.30;96.70;;;;;;5135805;27;20107;-85
2022/09/22 07:30:57;;;;;;;4.43;2.80;;;15.40;96.70;;;;;;5108043;28;20085;-86
2022/09/22 07:33:25;;;;;;;5.80;2.60;;;15.50;96.70;;;;;;5106596;28;20115;-84
2022/09/22 07:36:07;;;;;;;7.57;2.95;;;15.60;96.70;;;;;;5108801;28;20120;-86
2022/09/22 07:38:35;;;;;;;6.10;2.63;;;15.70;96.70;;;;;;5117138;27;20055;-86
2022/09/22 07:41:05;;;;;;;7.07;2.72;;;15.80;96.70;;;;;;5082570;28;20078;-86
2022/09/22 07:43:35;;;;;;;10.55;2.92;;;15.80;96.70;;;;;;5103679;28;20047;-85
2022/09/22 07:46:03;;;;;;;10.70;2.50;;;16.00;96.70;;;;;;5099415;28;20043;-85
2022/09/22 07:48:46;;;;;;;2.88;1.25;;;16.00;96.70;;;;;;5107670;28;20052;-84
2022/09/22 07:51:20;;;;;;;8.57;2.33;;;16.10;96.70;;;;;;5099821;28;20520;-84
2022/09/22 07:53:49;;;;;;;5.30;1.67;;;16.30;96.70;;;;;;5107257;28;20111;-84
2022/09/22 07:56:20;;;;;;;4.28;1.67;;;16.40;96.70;;;;;;5100520;28;20063;-84
2022/09/22 07:58:51;;;;;;;6.65;1.80;;;16.50;96.70;;;;;;5107129;28;20504;-84
2022/09/22 08:01:20;;;;;;;5.40;1.92;;;16.70;96.70;;;;;;5107021;28;20073;-84
2022/09/22 08:03:51;;;;;;;4.38;1.55;;;16.80;96.70;;;;;;5106796;28;20063;-84
2022/09/22 08:06:20;;;;;;;5.45;2.08;;;16.90;96.70;;;;;;5107465;28;20126;-84
2022/09/22 08:08:54;;;;;;;3.17;1.52;;;17.00;96.70;;;;;;5106231;28;20054;-84
2022/09/22 08:11:24;;;;;;;2.80;1.40;;;17.10;96.70;;;;;;5099543;28;20056;-84
2022/09/22 08:13:55;;;;;;;2.78;1.60;;;17.20;96.70;;;;;;5103028;28;20071;-84
2022/09/22 08:16:27;;;;;;;5.05;2.20;;;17.30;96.70;;;;;;5101640;28;20112;-84
2022/09/22 08:18:56;;;;;;;5.70;1.73;;;17.40;96.70;;;;;;5107891;28;20878;-84
2022/09/22 08:21:24;;;;;;;4.82;1.52;;;17.50;96.70;;;;;;5081892;28;20063;-84
2022/09/22 08:23:53;;;;;;;2.80;1.60;;;17.60;96.70;;;;;;5105460;28;20050;-84
2022/09/22 08:26:22;;;;;;;4.15;1.60;;;17.70;96.70;;;;;;5101108;28;20052;-84
2022/09/22 08:28:56;;;;;;;3.70;2.10;;;17.70;96.70;;;;;;5106679;28;20861;-85
2022/09/22 08:31:25;;;;;;;3.13;1.42;;;17.90;96.70;;;;;;5106914;28;20044;-84
2022/09/22 08:33:55;;;;;;;4.97;1.83;;;18.00;96.70;;;;;;5104538;28;20059;-84
2022/09/22 08:36:26;;;;;;;2.90;1.90;;;18.10;96.70;;;;;;5108024;28;20042;-84
2022/09/22 08:38:54;;;;;;;4.28;1.65;;;18.20;96.70;;;;;;5098628;28;20047;-86
2022/09/22 08:41:39;;;;;;;2.92;1.80;;;18.30;96.70;;;;;;5103186;28;20044;-84
2022/09/22 08:44:18;;;;;;;3.92;1.35;;;18.50;96.70;;;;;;5106776;28;20347;-84
2022/09/22 08:46:47;;;;;;;5.03;1.52;;;18.60;96.70;;;;;;5098764;28;20048;-85
2022/09/22 08:52:15;;;;;;;2.83;1.58;;;18.90;96.70;;;;;;5106475;28;20528;-85
2022/09/22 08:54:45;;;;;;;3.42;1.30;;;18.90;96.70;;;;;;5089896;28;20040;-84
2022/09/22 08:57:33;;;;;;;1.83;1.00;;;19.00;96.70;;;;;;5103500;28;20036;-84
2022/09/22 09:00:06;;;;;;;1.45;0.93;;;19.20;96.70;;;;;;5104107;28;20051;-84
2022/09/22 09:02:43;;;;;;;1.50;0.98;;;19.20;96.70;;;;;;5105491;28;20048;-85
2022/09/22 09:05:44;;;;;;;3.17;1.00;;;19.40;96.70;;;;;;5084038;28;20226;-85
2022/09/22 09:08:30;;;;;;;3.33;0.90;;;19.50;96.70;;;;;;5101521;28;20143;-85
2022/09/22 09:11:07;;;;;;;2.75;1.20;;;19.60;96.70;;;;;;5100988;28;20526;-84
2022/09/22 09:13:49;;;;;;;2.58;0.80;;;19.90;96.70;;;;;;5104468;28;20047;-84
2022/09/22 09:16:40;;;;;;;3.42;1.00;;;19.90;96.70;;;;;;5103041;28;20082;-85
2022/09/22 09:19:15;;;;;;;3.25;0.98;;;20.00;96.70;;;;;;5106205;28;20046;-84
2022/09/22 09:21:49;;;;;;;1.65;0.80;;;20.10;96.70;;;;;;5109976;28;20073;-83
2022/09/22 09:24:27;;;;;;;2.35;0.85;;;20.20;96.70;;;;;;5076801;28;20047;-85
2022/09/22 09:27:20;;;;;;;1.25;0.65;;;20.20;96.70;;;;;;5109785;28;20051;-85
2022/09/22 09:29:59;;;;;;;1.02;0.55;;;20.10;96.70;;;;;;5101307;28;20052;-85
2022/09/22 09:32:36;;;;;;;0.93;0.20;;;20.30;96.70;;;;;;5104597;28;20128;-84
2022/09/22 09:35:05;;;;;;;1.35;0.30;;;20.40;96.70;;;;;;5108228;28;20547;-84
2022/09/22 09:37:33;;;;;;;0.98;0.70;;;20.60;96.70;;;;;;5089996;28;20050;-84
2022/09/22 09:40:03;;;;;;;0.73;0.30;;;20.70;96.70;;;;;;5109843;28;20055;-85
2022/09/22 09:42:35;;;;;;;1.73;0.32;;;20.60;96.70;;;;;;5100353;28;20051;-85
2022/09/22 09:45:04;;;;;;;2.53;0.60;;;20.50;96.70;;;;;;5109938;28;20046;-84
2022/09/22 09:47:55;;;;;;;1.40;0.40;;;20.50;96.70;;;;;;5106218;28;20036;-84
2022/09/22 09:50:30;;;;;;;0.38;0.17;;;20.50;96.70;;;;;;5108665;28;20039;-84
2022/09/22 09:52:59;;;;;;;0.50;0.30;;;20.60;96.70;;;;;;5103777;28;20051;-85
2022/09/22 09:55:27;;;;;;;1.15;0.30;;;20.60;96.70;;;;;;5110549;27;20118;-84
2022/09/22 09:58:06;;;;;;;3.92;0.55;;;20.90;96.70;;;;;;5083756;28;20058;-84
2022/09/22 10:00:50;;;;;;;0.77;0.10;;;21.10;96.70;;;;;;5105081;28;20054;-84
2022/09/22 10:03:25;;;;;;;0.90;0.30;;;21.30;96.70;;;;;;5109735;28;20044;-85
2022/09/22 10:06:01;;;;;;;0.95;0.38;;;21.30;96.70;;;;;;5109322;28;20093;-84
2022/09/22 10:08:35;;;;;;;1.77;0.40;;;21.20;96.70;;;;;;5091083;28;20074;-83
2022/09/22 10:11:03;;;;;;;1.10;0.30;;;21.20;96.70;;;;;;5109445;28;20500;-84
2022/09/22 10:13:34;;;;;;;2.35;0.40;;;21.20;96.70;;;;;;5108802;28;20745;-84
2022/09/22 10:16:20;;;;;;;2.15;0.20;;;21.40;96.70;;;;;;5101967;28;20044;-84
2022/09/22 10:18:51;;;;;;;0.40;0.20;;;21.60;96.70;;;;;;5102390;28;20516;-84
2022/09/22 10:21:20;;;;;;;0.82;0.20;;;21.40;96.70;;;;;;5104830;28;20293;-85
2022/09/22 10:23:48;;;;;;;2.65;0.40;;;21.40;96.70;;;;;;5102721;28;20036;-84
2022/09/22 10:26:22;;;;;;;2.13;0.50;;;21.40;96.70;;;;;;5091704;28;20523;-84
2022/09/22 10:29:13;;;;;;;2.10;0.38;;;21.40;96.70;;;;;;5106931;28;20055;-84
2022/09/22 10:31:42;;;;;;;1.80;0.40;;;21.40;96.70;;;;;;5094483;28;20048;-84
2022/09/22 10:34:30;;;;;;;1.23;0.20;;;21.60;96.70;;;;;;5106733;28;20044;-84
2022/09/22 10:37:00;;;;;;;1.02;0.20;;;21.80;96.70;;;;;;5114852;27;20048;-84
2022/09/22 10:39:35;;;;;;;1.05;0.43;;;22.00;96.70;;;;;;5121273;27;20080;-83
2022/09/22 10:42:07;;;;;;;2.08;0.30;;;22.20;96.70;;;;;;5108348;28;20053;-84
2022/09/22 10:44:34;;;;;;;0.57;0.28;;;22.40;96.70;;;;;;5103156;28;20516;-85
2022/09/22 10:47:25;;;;;;;0.77;0.25;;;22.50;96.70;;;;;;5101829;28;20404;-83
2022/09/22 10:50:42;;;;;;;0.30;0.22;;;22.50;96.70;;;;;;5105851;28;20067;-86
2022/09/22 10:53:38;;;;;;;0.95;0.30;;;22.50;96.70;;;;;;5109237;28;20054;-87
2022/09/22 10:56:15;;;;;;;2.22;0.30;;;22.60;96.70;;;;;;5100870;28;20050;-87
2022/09/22 10:59:06;;;;;;;1.00;0.30;;;22.70;96.70;;;;;;5108700;28;20057;-88
2022/09/22 11:01:57;;;;;;;2.17;0.50;;;22.90;96.70;;;;;;5091700;28;20132;-88
2022/09/22 11:04:42;;;;;;;1.52;0.30;;;22.70;96.70;;;;;;5108293;28;20812;-85
2022/09/22 11:13:21;;;;;;;0.93;0.40;;;22.90;96.70;;;;;;5098462;28;20636;-81
2022/09/22 11:16:40;;;;;;;0.80;0.20;;;23.00;96.70;;;;;;5107793;28;20067;-80
2022/09/22 11:19:35;;;;;;;0.50;0.20;;;23.00;96.70;;;;;;5081041;28;20102;-80
2022/09/22 11:22:23;;;;;;;0.82;0.20;;;23.00;96.70;;;;;;5098112;28;20069;-78
2022/09/22 11:25:12;;;;;;;0.30;0.20;;;23.10;96.70;;;;;;5101052;28;20078;-79
2022/09/22 11:27:53;;;;;;;0.65;0.30;;;23.20;96.70;;;;;;5104100;28;20547;-79
2022/09/22 11:30:24;;;;;;;0.73;0.30;;;23.10;96.70;;;;;;5104799;28;20122;-79
2022/09/22 11:33:09;;;;;;;1.08;0.28;;;23.10;96.70;;;;;;5103461;28;20606;-79
2022/09/22 11:36:06;;;;;;;1.80;0.52;;;23.40;96.70;;;;;;5103023;28;20032;-79
2022/09/22 11:39:00;;;;;;;0.90;0.40;;;23.50;96.70;;;;;;5103474;28;20612;-80
2022/09/22 11:41:33;;;;;;;1.85;0.45;;;23.70;96.70;;;;;;5098441;28;20416;-79
2022/09/22 11:44:31;;;;;;;1.75;0.30;;;23.60;96.70;;;;;;5103515;28;20420;-79
2022/09/22 11:47:17;;;;;;;1.65;0.40;;;23.70;96.30;;;;;;5102452;28;20512;-80
2022/09/22 11:49:59;;;;;;;0.10;0.10;;;23.90;95.40;;;;;;5104452;28;20035;-80
2022/09/22 11:52:42;;;;;;;0.85;0.35;;;24.00;94.30;;;;;;5100132;28;20201;-79
2022/09/22 11:55:22;;;;;;;0.93;0.30;;;24.00;94.90;;;;;;5106143;28;20040;-83
2022/09/22 11:57:56;;;;;;;0.57;0.20;;;24.20;95.20;;;;;;5105057;28;20052;-81
2022/09/22 12:00:24;;;;;;;0.28;0.20;;;24.30;94.80;;;;;;5097092;28;20050;-83
2022/09/22 12:02:58;;;;;;;4.15;0.30;;;24.50;94.20;;;;;;5106533;28;20039;-84
2022/09/22 12:05:34;;;;;;;1.67;0.28;;;24.50;93.90;;;;;;5108249;28;20039;-83
2022/09/22 12:08:05;;;;;;;0.85;0.35;;;24.50;93.80;;;;;;5106495;28;20128;-82
2022/09/22 12:10:37;;;;;;;0.60;0.30;;;24.80;93.40;;;;;;5104502;28;20046;-81
2022/09/22 12:13:10;;;;;;;0.40;0.20;;;25.00;92.90;;;;;;5106350;28;20052;-84
2022/09/22 12:16:00;;;;;;;0.55;0.20;;;24.90;93.10;;;;;;5108475;28;20040;-83
2022/09/22 12:18:36;;;;;;;0.30;0.20;;;24.60;93.30;;;;;;5108161;28;20085;-83
2022/09/22 12:21:14;;;;;;;1.50;0.35;;;24.60;93.90;;;;;;5106880;28;20051;-84
2022/09/22 12:23:44;;;;;;;3.50;0.38;;;24.50;94.50;;;;;;5088322;28;20092;-83
2022/09/22 12:26:28;;;;;;;1.00;0.17;;;24.60;94.10;;;;;;5105037;28;20142;-81
2022/09/22 12:28:57;;;;;;;2.13;0.40;;;24.60;92.80;;;;;;5103742;28;20043;-80
2022/09/22 12:31:33;;;;;;;1.10;0.20;;;24.60;93.90;;;;;;5103290;28;20044;-81
2022/09/22 12:34:03;;;;;;;2.65;0.30;;;24.70;93.60;;;;;;5103823;28;20047;-80
2022/09/22 12:36:34;;;;;;;0.63;0.30;;;24.70;93.40;;;;;;5105167;28;20130;-80
2022/09/22 12:39:08;;;;;;;2.53;0.30;;;24.50;92.90;;;;;;5097874;28;20108;-81
2022/09/22 12:41:47;;;;;;;0.65;0.20;;;24.50;93.50;;;;;;5095846;28;20051;-82
2022/09/22 12:44:19;;;;;;;0.60;0.30;;;24.40;93.80;;;;;;5100324;28;20055;-84
2022/09/22 12:46:48;;;;;;;0.80;0.20;;;24.40;93.20;;;;;;5102728;28;20117;-82
2022/09/22 12:49:21;;;;;;;2.28;0.30;;;24.50;92.40;;;;;;5105541;28;21137;-81
2022/09/22 12:51:50;;;;;;;1.75;0.50;;;24.70;92.60;;;;;;5106138;28;20047;-84
2022/09/22 12:54:45;;;;;;;0.80;0.30;;;24.80;92.30;;;;;;5109553;28;20046;-82
2022/09/22 12:57:43;;;;;;;1.40;0.30;;;25.00;92.90;;;;;;5106857;28;20052;-82
2022/09/22 13:00:17;;;;;;;0.90;0.30;;;25.10;91.70;;;;;;5105873;28;20108;-82
2022/09/22 13:02:46;;;;;;;0.43;0.10;;;25.20;91.70;;;;;;5089502;28;20044;-82
2022/09/22 13:05:36;;;;;;;0.38;0.22;;;25.30;91.70;;;;;;5101745;28;20130;-80
2022/09/22 13:08:23;;;;;;;1.02;0.20;;;25.30;90.70;;;;;;5107870;28;20123;-83
2022/09/22 13:10:57;;;;;;;0.82;0.30;;;25.40;91.10;;;;;;5109552;28;20047;-82
2022/09/22 13:13:43;;;;;;;0.60;0.28;;;25.50;90.10;;;;;;5104680;28;20085;-82
2022/09/22 13:16:33;;;;;;;1.45;0.40;;;25.50;90.60;;;;;;5093125;28;20075;-83
2022/09/22 13:19:06;;;;;;;0.98;0.10;;;25.20;91.20;;;;;;5094652;28;20063;-83
2022/09/22 13:21:35;;;;;;;0.68;0.30;;;25.20;90.60;;;;;;5103754;28;20058;-82
2022/09/22 13:24:05;;;;;;;0.63;0.25;;;25.00;91.20;;;;;;5103255;27;20071;-83
2022/09/22 13:26:34;;;;;;;0.85;0.38;;;24.80;91.30;;;;;;5108169;28;20035;-83
2022/09/22 13:29:10;;;;;;;0.80;0.30;;;24.70;91.90;;;;;;5108535;28;20051;-83